sensor_id;sensor_type;location;lat;lon;timestamp;pressure;altitude;pressure_sealevel;temperature;humidity
68594;BME280;55563;52.416;13.548;2022-09-14T00:01:09;100345.72;;;13.66;100.00
68594;BME280;55563;52.416;13.548;2022-09-14T00:03:09;100351.28;;;13.65;100.00
68594;BME280;55563;52.416;13.548;2022-09-14T00:05:10;100337.00;;;13.66;100.00
68594;BME280;55563;52.416;13.548;2022-09-14T00:07:10;100339.16;;;13.64;100.00
68594;BME280;55563;52.416;13.548;2022-09-14T00:09:17;100341.78;;;13.64;100.00
68594;BME280;55563;52.416;13.548;2022-09-14T00:11:20;100341.00;;;13.63;100.00
68594;BME280;55563;52.416;13.548;2022-09-14T00:13:21;100333.59;;;13.65;100.00
68594;BME280;55563;52.416;13.548;2022-09-14T00:15:22;100331.22;;;13.64;100.00
68594;BME280;55563;52.416;13.548;2022-09-14T00:17:22;100328.59;;;13.64;100.00
68594;BME280;55563;52.416;13.548;2022-09-14T00:19:25;100327.31;;;13.61;100.00
68594;BME280;55563;52.416;13.548;2022-09-14T00:21:27;100333.88;;;13.64;100.00
68594;BME280;55563;52.416;13.548;2022-09-14T00:23:28;100327.31;;;13.61;100.00
68594;BME280;55563;52.416;13.548;2022-09-14T00:25:29;100326.81;;;13.59;100.00
68594;BME280;55563;52.416;13.548;2022-09-14T00:27:30;100320.53;;;13.55;100.00
68594;BME280;55563;52.416;13.548;2022-09-14T00:29:30;100321.88;;;13.52;100.00
68594;BME280;55563;52.416;13.548;2022-09-14T00:31:34;100321.66;;;13.49;100.00
68594;BME280;55563;52.416;13.548;2022-09-14T00:33:36;100326.66;;;13.50;100.00
68594;BME280;55563;52.416;13.548;2022-09-14T00:35:37;100321.66;;;13.49;100.00
68594;BME280;55563;52.416;13.548;2022-09-14T00:37:39;100314.03;;;13.47;100.00
68594;BME280;55563;52.416;13.548;2022-09-14T00:39:39;100315.66;;;13.43;100.00
68594;BME280;55563;52.416;13.548;2022-09-14T00:41:43;100316.03;;;13.37;100.00
68594;BME280;55563;52.416;13.548;2022-09-14T00:44:03;100320.00;;;13.34;100.00
68594;BME280;55563;52.416;13.548;2022-09-14T00:46:04;100310.28;;;13.30;100.00
68594;BME280;55563;52.416;13.548;2022-09-14T00:48:04;100306.88;;;13.29;100.00
68594;BME280;55563;52.416;13.548;2022-09-14T00:50:05;100305.59;;;13.27;100.00
68594;BME280;55563;52.416;13.548;2022-09-14T00:52:16;100302.44;;;13.25;100.00
68594;BME280;55563;52.416;13.548;2022-09-14T00:54:18;100295.59;;;13.24;100.00
68594;BME280;55563;52.416;13.548;2022-09-14T00:56:20;100294.31;;;13.21;100.00
68594;BME280;55563;52.416;13.548;2022-09-14T00:58:20;100290.59;;;13.22;100.00
68594;BME280;55563;52.416;13.548;2022-09-14T01:00:25;100292.53;;;13.17;100.00
68594;BME280;55563;52.416;13.548;2022-09-14T01:02:26;100297.81;;;13.17;100.00
68594;BME280;55563;52.416;13.548;2022-09-14T01:04:27;100293.09;;;13.14;100.00
68594;BME280;55563;52.416;13.548;2022-09-14T01:06:39;100290.94;;;13.16;100.00
68594;BME280;55563;52.416;13.548;2022-09-14T01:13:55;100291.63;;;13.02;100.00
68594;BME280;55563;52.416;13.548;2022-09-14T01:16:31;100287.13;;;13.03;100.00
68594;BME280;55563;52.416;13.548;2022-09-14T01:18:42;100285.75;;;13.05;100.00
68594;BME280;55563;52.416;13.548;2022-09-14T01:21:07;100287.41;;;13.01;100.00
68594;BME280;55563;52.416;13.548;2022-09-14T01:28:17;100286.41;;;12.97;100.00
68594;BME280;55563;52.416;13.548;2022-09-14T01:30:22;100276.47;;;12.89;100.00
68594;BME280;55563;52.416;13.548;2022-09-14T01:32:42;100285.41;;;12.93;100.00
68594;BME280;55563;52.416;13.548;2022-09-14T01:35:08;100286.72;;;12.91;100.00
68594;BME280;55563;52.416;13.548;2022-09-14T01:37:16;100288.38;;;12.87;100.00
68594;BME280;55563;52.416;13.548;2022-09-14T01:39:19;100282.09;;;12.83;100.00
68594;BME280;55563;52.416;13.548;2022-09-14T01:41:23;100283.78;;;12.74;100.00
68594;BME280;55563;52.416;13.548;2022-09-14T01:43:34;100283.19;;;12.77;100.00
68594;BME280;55563;52.416;13.548;2022-09-14T01:45:40;100279.28;;;12.74;100.00
68594;BME280;55563;52.416;13.548;2022-09-14T01:47:54;100277.28;;;12.66;100.00
68594;BME280;55563;52.416;13.548;2022-09-14T01:50:02;100280.91;;;12.70;100.00
68594;BME280;55563;52.416;13.548;2022-09-14T01:52:11;100283.31;;;12.66;100.00
68594;BME280;55563;52.416;13.548;2022-09-14T01:54:16;100277.19;;;12.71;100.00
68594;BME280;55563;52.416;13.548;2022-09-14T01:56:25;100281.19;;;12.68;100.00
68594;BME280;55563;52.416;13.548;2022-09-14T01:58:39;100285.19;;;12.66;100.00
68594;BME280;55563;52.416;13.548;2022-09-14T02:00:43;100283.59;;;12.65;100.00
68594;BME280;55563;52.416;13.548;2022-09-14T02:02:51;100291.78;;;12.63;100.00
68594;BME280;55563;52.416;13.548;2022-09-14T02:05:02;100272.81;;;12.61;100.00
68594;BME280;55563;52.416;13.548;2022-09-14T02:07:05;100281.56;;;12.57;100.00
68594;BME280;55563;52.416;13.548;2022-09-14T02:09:08;100281.50;;;12.62;100.00
68594;BME280;55563;52.416;13.548;2022-09-14T02:11:09;100274.69;;;12.61;100.00
68594;BME280;55563;52.416;13.548;2022-09-14T02:13:10;100278.94;;;12.57;100.00
68594;BME280;55563;52.416;13.548;2022-09-14T02:15:12;100273.91;;;12.60;100.00
68594;BME280;55563;52.416;13.548;2022-09-14T02:17:14;100276.03;;;12.58;100.00
68594;BME280;55563;52.416;13.548;2022-09-14T02:19:14;100269.22;;;12.52;100.00
68594;BME280;55563;52.416;13.548;2022-09-14T02:21:20;100272.66;;;12.53;100.00
68594;BME280;55563;52.416;13.548;2022-09-14T02:23:22;100274.22;;;12.54;100.00
68594;BME280;55563;52.416;13.548;2022-09-14T02:25:23;100258.97;;;12.51;100.00
68594;BME280;55563;52.416;13.548;2022-09-14T02:27:24;100269.28;;;12.47;100.00
68594;BME280;55563;52.416;13.548;2022-09-14T02:29:24;100266.94;;;12.46;100.00
68594;BME280;55563;52.416;13.548;2022-09-14T02:36:30;100266.97;;;12.41;100.00
68594;BME280;55563;52.416;13.548;2022-09-14T02:38:40;100272.53;;;12.39;100.00
68594;BME280;55563;52.416;13.548;2022-09-14T02:40:56;100265.13;;;12.41;100.00
68594;BME280;55563;52.416;13.548;2022-09-14T02:43:20;100263.03;;;12.38;100.00
68594;BME280;55563;52.416;13.548;2022-09-14T02:45:39;100263.09;;;12.33;100.00
68594;BME280;55563;52.416;13.548;2022-09-14T02:47:50;100255.97;;;12.34;100.00
68594;BME280;55563;52.416;13.548;2022-09-14T02:52:57;100259.44;;;12.29;100.00
68594;BME280;55563;52.416;13.548;2022-09-14T02:55:06;100265.50;;;12.30;100.00
68594;BME280;55563;52.416;13.548;2022-09-14T02:57:08;100262.38;;;12.28;100.00
68594;BME280;55563;52.416;13.548;2022-09-14T02:59:09;100264.22;;;12.27;100.00
68594;BME280;55563;52.416;13.548;2022-09-14T03:01:13;100267.91;;;12.26;100.00
68594;BME280;55563;52.416;13.548;2022-09-14T03:03:17;100261.34;;;12.23;100.00
68594;BME280;55563;52.416;13.548;2022-09-14T03:05:19;100263.97;;;12.23;100.00
68594;BME280;55563;52.416;13.548;2022-09-14T03:07:19;100265.88;;;12.18;100.00
68594;BME280;55563;52.416;13.548;2022-09-14T03:09:20;100260.31;;;12.19;100.00
68594;BME280;55563;52.416;13.548;2022-09-14T03:11:21;100268.44;;;12.23;100.00
68594;BME280;55563;52.416;13.548;2022-09-14T03:13:21;100265.38;;;12.16;100.00
68594;BME280;55563;52.416;13.548;2022-09-14T03:15:22;100267.22;;;12.15;100.00
68594;BME280;55563;52.416;13.548;2022-09-14T03:17:23;100261.19;;;12.10;100.00
68594;BME280;55563;52.416;13.548;2022-09-14T03:19:23;100267.78;;;12.12;100.00
68594;BME280;55563;52.416;13.548;2022-09-14T03:21:24;100269.91;;;12.10;100.00
68594;BME280;55563;52.416;13.548;2022-09-14T03:23:24;100272.53;;;12.10;100.00
68594;BME280;55563;52.416;13.548;2022-09-14T03:25:25;100267.25;;;12.10;100.00
68594;BME280;55563;52.416;13.548;2022-09-14T03:27:27;100270.69;;;12.11;100.00
68594;BME280;55563;52.416;13.548;2022-09-14T03:29:27;100273.06;;;12.12;100.00
68594;BME280;55563;52.416;13.548;2022-09-14T03:31:28;100273.06;;;12.12;100.00
68594;BME280;55563;52.416;13.548;2022-09-14T03:33:29;100269.41;;;12.08;100.00
68594;BME280;55563;52.416;13.548;2022-09-14T03:35:30;100259.63;;;12.09;100.00
68594;BME280;55563;52.416;13.548;2022-09-14T03:37:30;100258.34;;;12.06;100.00
68594;BME280;55563;52.416;13.548;2022-09-14T03:39:31;100255.16;;;12.09;100.00
68594;BME280;55563;52.416;13.548;2022-09-14T03:41:32;100250.97;;;12.08;100.00
68594;BME280;55563;52.416;13.548;2022-09-14T03:43:33;100249.38;;;12.07;100.00
68594;BME280;55563;52.416;13.548;2022-09-14T03:45:35;100250.44;;;12.06;100.00
68594;BME280;55563;52.416;13.548;2022-09-14T03:47:36;100250.97;;;12.08;100.00
68594;BME280;55563;52.416;13.548;2022-09-14T03:49:37;100245.69;;;12.08;100.00
68594;BME280;55563;52.416;13.548;2022-09-14T03:51:37;100249.66;;;12.06;100.00
68594;BME280;55563;52.416;13.548;2022-09-14T03:53:39;100256.53;;;12.02;100.00
68594;BME280;55563;52.416;13.548;2022-09-14T03:55:39;100254.97;;;12.01;100.00
68594;BME280;55563;52.416;13.548;2022-09-14T03:57:41;100251.09;;;11.93;100.00
68594;BME280;55563;52.416;13.548;2022-09-14T03:59:41;100247.38;;;11.94;100.00
68594;BME280;55563;52.416;13.548;2022-09-14T04:01:42;100249.25;;;11.94;100.00
68594;BME280;55563;52.416;13.548;2022-09-14T04:03:43;100245.81;;;11.93;100.00
68594;BME280;55563;52.416;13.548;2022-09-14T04:05:53;100240.03;;;11.91;100.00
68594;BME280;55563;52.416;13.548;2022-09-14T04:07:55;100241.38;;;11.89;100.00
68594;BME280;55563;52.416;13.548;2022-09-14T04:09:56;100245.88;;;11.88;100.00
68594;BME280;55563;52.416;13.548;2022-09-14T04:11:57;100242.44;;;11.88;100.00
68594;BME280;55563;52.416;13.548;2022-09-14T04:14:02;100246.91;;;11.87;100.00
68594;BME280;55563;52.416;13.548;2022-09-14T04:16:03;100256.66;;;11.87;100.00
68594;BME280;55563;52.416;13.548;2022-09-14T04:18:04;100254.06;;;11.82;100.00
68594;BME280;55563;52.416;13.548;2022-09-14T04:20:04;100267.22;;;11.82;100.00
68594;BME280;55563;52.416;13.548;2022-09-14T04:22:05;100264.09;;;11.79;100.00
68594;BME280;55563;52.416;13.548;2022-09-14T04:24:10;100269.41;;;11.74;100.00
68594;BME280;55563;52.416;13.548;2022-09-14T04:26:14;100253.59;;;11.74;100.00
68594;BME280;55563;52.416;13.548;2022-09-14T04:28:16;100242.50;;;11.77;100.00
68594;BME280;55563;52.416;13.548;2022-09-14T04:30:16;100243.56;;;11.76;100.00
68594;BME280;55563;52.416;13.548;2022-09-14T04:32:17;100241.47;;;11.78;100.00
68594;BME280;55563;52.416;13.548;2022-09-14T04:34:18;100240.94;;;11.76;100.00
68594;BME280;55563;52.416;13.548;2022-09-14T04:36:20;100243.06;;;11.74;100.00
68594;BME280;55563;52.416;13.548;2022-09-14T04:38:21;100242.28;;;11.74;100.00
68594;BME280;55563;52.416;13.548;2022-09-14T04:40:22;100246.22;;;11.76;100.00
68594;BME280;55563;52.416;13.548;2022-09-14T04:42:23;100240.69;;;11.78;100.00
68594;BME280;55563;52.416;13.548;2022-09-14T04:44:23;100241.16;;;11.80;100.00
68594;BME280;55563;52.416;13.548;2022-09-14T04:46:27;100243.06;;;11.74;100.00
68594;BME280;55563;52.416;13.548;2022-09-14T04:48:30;100244.88;;;11.79;100.00
68594;BME280;55563;52.416;13.548;2022-09-14T04:50:32;100236.47;;;11.77;100.00
68594;BME280;55563;52.416;13.548;2022-09-14T04:52:35;100232.78;;;11.78;100.00
68594;BME280;55563;52.416;13.548;2022-09-14T04:54:36;100243.81;;;11.80;100.00
68594;BME280;55563;52.416;13.548;2022-09-14T04:56:37;100232.22;;;11.81;100.00
68594;BME280;55563;52.416;13.548;2022-09-14T04:58:41;100231.41;;;11.80;100.00
68594;BME280;55563;52.416;13.548;2022-09-14T05:00:41;100230.09;;;11.83;100.00
68594;BME280;55563;52.416;13.548;2022-09-14T05:02:42;100228.56;;;11.77;100.00
68594;BME280;55563;52.416;13.548;2022-09-14T05:04:43;100224.84;;;11.83;100.00
68594;BME280;55563;52.416;13.548;2022-09-14T05:06:43;100229.31;;;11.83;100.00
68594;BME280;55563;52.416;13.548;2022-09-14T05:08:44;100221.91;;;11.85;100.00
68594;BME280;55563;52.416;13.548;2022-09-14T05:10:45;100219.53;;;11.88;100.00
68594;BME280;55563;52.416;13.548;2022-09-14T05:12:46;100217.69;;;11.89;100.00
68594;BME280;55563;52.416;13.548;2022-09-14T05:14:47;100217.94;;;11.87;100.00
68594;BME280;55563;52.416;13.548;2022-09-14T05:16:47;100218.75;;;11.88;100.00
68594;BME280;55563;52.416;13.548;2022-09-14T05:18:49;100221.88;;;11.90;100.00
68594;BME280;55563;52.416;13.548;2022-09-14T05:20:50;100217.13;;;11.92;100.00
68594;BME280;55563;52.416;13.548;2022-09-14T05:22:50;100221.56;;;11.96;100.00
68594;BME280;55563;52.416;13.548;2022-09-14T05:24:51;100229.47;;;11.96;100.00
68594;BME280;55563;52.416;13.548;2022-09-14T05:26:51;100230.47;;;12.00;100.00
68594;BME280;55563;52.416;13.548;2022-09-14T05:28:54;100235.47;;;12.02;100.00
68594;BME280;55563;52.416;13.548;2022-09-14T05:30:55;100229.16;;;12.03;100.00
68594;BME280;55563;52.416;13.548;2022-09-14T05:32:56;100229.09;;;12.08;100.00
68594;BME280;55563;52.416;13.548;2022-09-14T05:34:56;100227.78;;;12.05;100.00
68594;BME280;55563;52.416;13.548;2022-09-14T05:36:57;100227.53;;;12.07;100.00
68594;BME280;55563;52.416;13.548;2022-09-14T05:38:58;100232.28;;;12.05;100.00
68594;BME280;55563;52.416;13.548;2022-09-14T05:41:00;100227.47;;;12.12;100.00
68594;BME280;55563;52.416;13.548;2022-09-14T05:43:00;100246.94;;;12.16;100.00
68594;BME280;55563;52.416;13.548;2022-09-14T05:45:01;100239.78;;;12.21;100.00
68594;BME280;55563;52.416;13.548;2022-09-14T05:47:02;100235.00;;;12.23;100.00
68594;BME280;55563;52.416;13.548;2022-09-14T05:49:02;100231.88;;;12.21;100.00
68594;BME280;55563;52.416;13.548;2022-09-14T05:51:06;100238.72;;;12.22;100.00
68594;BME280;55563;52.416;13.548;2022-09-14T05:53:07;100232.66;;;12.22;100.00
68594;BME280;55563;52.416;13.548;2022-09-14T05:55:08;100222.84;;;12.28;100.00
68594;BME280;55563;52.416;13.548;2022-09-14T05:57:09;100234.88;;;12.34;100.00
68594;BME280;55563;52.416;13.548;2022-09-14T05:59:09;100223.81;;;12.37;100.00
68594;BME280;55563;52.416;13.548;2022-09-14T06:01:21;100227.72;;;12.39;100.00
68594;BME280;55563;52.416;13.548;2022-09-14T06:03:22;100228.00;;;12.38;100.00
68594;BME280;55563;52.416;13.548;2022-09-14T06:05:23;100222.19;;;12.41;100.00
68594;BME280;55563;52.416;13.548;2022-09-14T06:07:25;100216.84;;;12.46;100.00
68594;BME280;55563;52.416;13.548;2022-09-14T06:09:25;100214.16;;;12.51;100.00
68594;BME280;55563;52.416;13.548;2022-09-14T06:11:28;100214.31;;;12.59;100.00
68594;BME280;55563;52.416;13.548;2022-09-14T06:13:29;100209.47;;;12.66;100.00
68594;BME280;55563;52.416;13.548;2022-09-14T06:15:32;100210.19;;;12.72;100.00
68594;BME280;55563;52.416;13.548;2022-09-14T06:17:33;100213.56;;;12.78;100.00
68594;BME280;55563;52.416;13.548;2022-09-14T06:19:33;100206.66;;;12.82;100.00
68594;BME280;55563;52.416;13.548;2022-09-14T06:21:34;100207.66;;;12.86;100.00
68594;BME280;55563;52.416;13.548;2022-09-14T06:23:35;100218.88;;;12.96;100.00
68594;BME280;55563;52.416;13.548;2022-09-14T06:25:35;100209.56;;;13.04;100.00
68594;BME280;55563;52.416;13.548;2022-09-14T06:27:37;100199.56;;;13.20;100.00
68594;BME280;55563;52.416;13.548;2022-09-14T06:29:37;100201.16;;;13.21;100.00
68594;BME280;55563;52.416;13.548;2022-09-14T06:31:38;100205.72;;;13.15;100.00
68594;BME280;55563;52.416;13.548;2022-09-14T06:33:47;100203.38;;;13.14;100.00
68594;BME280;55563;52.416;13.548;2022-09-14T06:36:06;100207.50;;;13.20;100.00
68594;BME280;55563;52.416;13.548;2022-09-14T06:38:09;100202.38;;;13.28;100.00
68594;BME280;55563;52.416;13.548;2022-09-14T06:40:10;100213.94;;;13.32;100.00
68594;BME280;55563;52.416;13.548;2022-09-14T06:42:10;100212.84;;;13.33;100.00
68594;BME280;55563;52.416;13.548;2022-09-14T06:44:12;100202.22;;;13.38;100.00
68594;BME280;55563;52.416;13.548;2022-09-14T06:46:16;100214.53;;;13.43;100.00
68594;BME280;55563;52.416;13.548;2022-09-14T06:48:19;100213.84;;;13.56;100.00
68594;BME280;55563;52.416;13.548;2022-09-14T06:50:19;100211.81;;;13.67;100.00
68594;BME280;55563;52.416;13.548;2022-09-14T06:52:20;100209.75;;;13.64;100.00
68594;BME280;55563;52.416;13.548;2022-09-14T06:54:21;100215.88;;;13.91;100.00
68594;BME280;55563;52.416;13.548;2022-09-14T06:56:21;100212.28;;;14.01;100.00
68594;BME280;55563;52.416;13.548;2022-09-14T06:58:22;100204.88;;;14.17;100.00
68594;BME280;55563;52.416;13.548;2022-09-14T07:00:23;100224.91;;;14.36;100.00
68594;BME280;55563;52.416;13.548;2022-09-14T07:02:24;100212.72;;;14.35;100.00
68594;BME280;55563;52.416;13.548;2022-09-14T07:04:24;100215.47;;;14.30;100.00
68594;BME280;55563;52.416;13.548;2022-09-14T07:06:27;100220.19;;;14.33;100.00
68594;BME280;55563;52.416;13.548;2022-09-14T07:08:28;100215.78;;;14.29;100.00
68594;BME280;55563;52.416;13.548;2022-09-14T07:10:28;100212.72;;;14.35;100.00
68594;BME280;55563;52.416;13.548;2022-09-14T07:12:29;100216.22;;;14.17;100.00
68594;BME280;55563;52.416;13.548;2022-09-14T07:14:30;100210.88;;;14.36;100.00
68594;BME280;55563;52.416;13.548;2022-09-14T07:16:33;100216.44;;;14.34;100.00
68594;BME280;55563;52.416;13.548;2022-09-14T07:18:39;100214.50;;;14.40;100.00
68594;BME280;55563;52.416;13.548;2022-09-14T07:20:40;100210.28;;;14.39;100.00
68594;BME280;55563;52.416;13.548;2022-09-14T07:22:41;100208.66;;;14.43;100.00
68594;BME280;55563;52.416;13.548;2022-09-14T07:24:41;100214.41;;;14.45;100.00
68594;BME280;55563;52.416;13.548;2022-09-14T07:26:42;100223.13;;;14.46;100.00
68594;BME280;55563;52.416;13.548;2022-09-14T07:28:45;100217.81;;;14.32;100.00
68594;BME280;55563;52.416;13.548;2022-09-14T07:30:46;100210.47;;;14.29;100.00
68594;BME280;55563;52.416;13.548;2022-09-14T07:32:47;100210.59;;;14.37;100.00
68594;BME280;55563;52.416;13.548;2022-09-14T07:34:47;100216.75;;;14.33;100.00
68594;BME280;55563;52.416;13.548;2022-09-14T07:36:48;100210.31;;;14.53;100.00
68594;BME280;55563;52.416;13.548;2022-09-14T07:38:48;100209.81;;;14.51;100.00
68594;BME280;55563;52.416;13.548;2022-09-14T07:40:49;100212.44;;;14.64;100.00
68594;BME280;55563;52.416;13.548;2022-09-14T07:42:51;100206.84;;;14.79;100.00
68594;BME280;55563;52.416;13.548;2022-09-14T07:44:52;100209.03;;;14.50;100.00
68594;BME280;55563;52.416;13.548;2022-09-14T07:46:55;100209.53;;;14.66;100.00
68594;BME280;55563;52.416;13.548;2022-09-14T07:48:57;100209.09;;;14.72;100.00
68594;BME280;55563;52.416;13.548;2022-09-14T07:51:08;100212.16;;;14.66;100.00
68594;BME280;55563;52.416;13.548;2022-09-14T07:53:09;100212.34;;;14.83;100.00
68594;BME280;55563;52.416;13.548;2022-09-14T07:55:10;100215.88;;;14.65;100.00
68594;BME280;55563;52.416;13.548;2022-09-14T07:57:11;100213.00;;;14.89;100.00
68594;BME280;55563;52.416;13.548;2022-09-14T07:59:13;100215.13;;;15.14;100.00
68594;BME280;55563;52.416;13.548;2022-09-14T08:01:16;100212.59;;;15.31;100.00
68594;BME280;55563;52.416;13.548;2022-09-14T08:03:28;100212.66;;;15.17;100.00
68594;BME280;55563;52.416;13.548;2022-09-14T08:05:31;100214.69;;;15.34;100.00
68594;BME280;55563;52.416;13.548;2022-09-14T08:07:35;100217.19;;;15.53;100.00
68594;BME280;55563;52.416;13.548;2022-09-14T08:09:38;100217.41;;;15.87;100.00
68594;BME280;55563;52.416;13.548;2022-09-14T08:11:41;100214.88;;;15.60;100.00
68594;BME280;55563;52.416;13.548;2022-09-14T08:13:49;100213.19;;;15.64;100.00
68594;BME280;55563;52.416;13.548;2022-09-14T08:15:52;100222.06;;;15.46;100.00
68594;BME280;55563;52.416;13.548;2022-09-14T08:17:56;100215.78;;;15.55;100.00
68594;BME280;55563;52.416;13.548;2022-09-14T08:19:59;100220.78;;;15.57;100.00
68594;BME280;55563;52.416;13.548;2022-09-14T08:22:12;100212.41;;;15.63;100.00
68594;BME280;55563;52.416;13.548;2022-09-14T08:24:24;100209.63;;;15.91;100.00
68594;BME280;55563;52.416;13.548;2022-09-14T08:26:27;100216.03;;;15.98;100.00
68594;BME280;55563;52.416;13.548;2022-09-14T08:28:41;100215.78;;;16.08;100.00
68594;BME280;55563;52.416;13.548;2022-09-14T08:30:53;100209.44;;;16.18;100.00
68594;BME280;55563;52.416;13.548;2022-09-14T08:33:05;100214.66;;;16.32;100.00
68594;BME280;55563;52.416;13.548;2022-09-14T08:35:16;100209.47;;;16.27;97.44
68594;BME280;55563;52.416;13.548;2022-09-14T08:37:20;100204.63;;;16.20;97.96
68594;BME280;55563;52.416;13.548;2022-09-14T08:39:32;100196.66;;;16.60;99.32
68594;BME280;55563;52.416;13.548;2022-09-14T08:41:43;100207.53;;;16.49;98.84
68594;BME280;55563;52.416;13.548;2022-09-14T08:43:48;100198.88;;;16.66;99.08
68594;BME280;55563;52.416;13.548;2022-09-14T08:45:55;100197.78;;;16.67;95.63
68594;BME280;55563;52.416;13.548;2022-09-14T08:48:02;100202.41;;;16.53;95.60
68594;BME280;55563;52.416;13.548;2022-09-14T08:50:12;100200.63;;;16.88;97.25
68594;BME280;55563;52.416;13.548;2022-09-14T08:54:33;100207.03;;;17.04;93.38
68594;BME280;55563;52.416;13.548;2022-09-14T08:56:58;100202.19;;;17.49;94.25
68594;BME280;55563;52.416;13.548;2022-09-14T08:59:51;100198.59;;;17.71;91.25
68594;BME280;55563;52.416;13.548;2022-09-14T09:02:17;100205.31;;;17.42;86.84
68594;BME280;55563;52.416;13.548;2022-09-14T09:07:28;100197.81;;;17.70;87.88
68594;BME280;55563;52.416;13.548;2022-09-14T09:09:51;100185.69;;;18.07;84.82
68594;BME280;55563;52.416;13.548;2022-09-14T09:12:05;100183.94;;;17.65;83.34
68594;BME280;55563;52.416;13.548;2022-09-14T09:14:28;100180.13;;;17.57;83.59
68594;BME280;55563;52.416;13.548;2022-09-14T09:16:35;100186.88;;;17.46;83.89
68594;BME280;55563;52.416;13.548;2022-09-14T09:18:51;100185.47;;;17.31;85.57
68594;BME280;55563;52.416;13.548;2022-09-14T09:21:11;100187.66;;;17.55;85.25
68594;BME280;55563;52.416;13.548;2022-09-14T09:23:23;100197.84;;;17.44;84.19
68594;BME280;55563;52.416;13.548;2022-09-14T09:25:38;100193.59;;;17.52;87.04
68594;BME280;55563;52.416;13.548;2022-09-14T09:27:46;100182.97;;;17.69;87.40
68594;BME280;55563;52.416;13.548;2022-09-14T09:29:50;100185.78;;;17.73;85.82
68594;BME280;55563;52.416;13.548;2022-09-14T09:32:03;100184.50;;;17.70;86.16
68594;BME280;55563;52.416;13.548;2022-09-14T09:34:27;100182.66;;;17.62;82.37
68594;BME280;55563;52.416;13.548;2022-09-14T09:36:45;100180.47;;;17.47;84.84
68594;BME280;55563;52.416;13.548;2022-09-14T09:38:48;100175.78;;;17.61;82.01
68594;BME280;55563;52.416;13.548;2022-09-14T09:40:53;100178.59;;;17.73;81.76
68594;BME280;55563;52.416;13.548;2022-09-14T09:43:05;100171.09;;;17.67;81.54
68594;BME280;55563;52.416;13.548;2022-09-14T09:45:06;100160.13;;;17.51;79.34
68594;BME280;55563;52.416;13.548;2022-09-14T09:47:08;100165.19;;;17.35;78.03
68594;BME280;55563;52.416;13.548;2022-09-14T09:49:34;100165.50;;;17.60;79.73
68594;BME280;55563;52.416;13.548;2022-09-14T09:51:35;100166.84;;;17.66;80.49
68594;BME280;55563;52.416;13.548;2022-09-14T09:53:50;100161.38;;;17.71;78.41
68594;BME280;55563;52.416;13.548;2022-09-14T09:55:51;100174.34;;;17.72;79.07
68594;BME280;55563;52.416;13.548;2022-09-14T09:57:53;100165.28;;;17.73;77.81
68594;BME280;55563;52.416;13.548;2022-09-14T10:00:22;100168.56;;;17.79;79.38
68594;BME280;55563;52.416;13.548;2022-09-14T10:04:36;100154.81;;;17.77;78.05
68594;BME280;55563;52.416;13.548;2022-09-14T10:06:42;100156.03;;;17.88;79.18
68594;BME280;55563;52.416;13.548;2022-09-14T10:08:45;100154.75;;;17.85;77.05
68594;BME280;55563;52.416;13.548;2022-09-14T10:10:46;100158.56;;;17.67;75.47
68594;BME280;55563;52.416;13.548;2022-09-14T10:12:50;100156.66;;;17.76;75.88
68594;BME280;55563;52.416;13.548;2022-09-14T10:17:20;100157.09;;;17.96;76.42
68594;BME280;55563;52.416;13.548;2022-09-14T10:19:23;100152.28;;;17.80;75.67
68594;BME280;55563;52.416;13.548;2022-09-14T10:21:26;100163.91;;;17.67;73.82
68594;BME280;55563;52.416;13.548;2022-09-14T10:23:29;100152.44;;;17.75;77.46
68594;BME280;55563;52.416;13.548;2022-09-14T10:25:30;100162.47;;;17.70;74.87
68594;BME280;55563;52.416;13.548;2022-09-14T10:27:35;100142.16;;;17.74;75.15
68594;BME280;55563;52.416;13.548;2022-09-14T10:29:41;100144.81;;;17.74;72.76
68594;BME280;55563;52.416;13.548;2022-09-14T10:31:43;100156.22;;;17.66;72.74
68594;BME280;55563;52.416;13.548;2022-09-14T10:33:45;100151.50;;;17.80;73.09
68594;BME280;55563;52.416;13.548;2022-09-14T10:36:09;100145.19;;;18.02;76.57
68594;BME280;55563;52.416;13.548;2022-09-14T10:38:31;100152.75;;;17.82;74.80
68594;BME280;55563;52.416;13.548;2022-09-14T10:40:36;100150.31;;;18.07;77.53
68594;BME280;55563;52.416;13.548;2022-09-14T10:43:16;100148.66;;;18.23;77.08
68594;BME280;55563;52.416;13.548;2022-09-14T10:47:51;100141.41;;;18.32;76.26
68594;BME280;55563;52.416;13.548;2022-09-14T10:50:43;100139.53;;;18.33;73.60
68594;BME280;55563;52.416;13.548;2022-09-14T10:55:31;100132.47;;;18.07;75.56
68594;BME280;55563;52.416;13.548;2022-09-14T10:57:56;100125.13;;;18.04;72.18
68594;BME280;55563;52.416;13.548;2022-09-14T11:07:31;100142.56;;;18.22;70.73
68594;BME280;55563;52.416;13.548;2022-09-14T11:09:48;100138.34;;;18.51;71.52
68594;BME280;55563;52.416;13.548;2022-09-14T11:14:20;100142.19;;;18.62;71.90
68594;BME280;55563;52.416;13.548;2022-09-14T11:16:40;100136.50;;;18.72;71.73
68594;BME280;55563;52.416;13.548;2022-09-14T11:19:01;100151.66;;;18.51;70.29
68594;BME280;55563;52.416;13.548;2022-09-14T11:21:50;100152.63;;;18.46;70.49
68594;BME280;55563;52.416;13.548;2022-09-14T11:23:45;100144.47;;;18.43;68.09